Bookmark and Share
Track history (hours):
 

Shin Chun

Last reported at 2014-Apr-23 06:30 UTC. Time now 2014-Apr-23 07:01 UTC.
Position N 25°25' E 119°17'.

Length 152 m; draft 7.3 m.

Type: Cargo ship. MMSI: 477218300.

NotesDate/timePositionNaut miles runAvg speedWind from/ knotsBaromVisibWave heightAir tempDewpointWater temp
2014-Apr-23 06:30N 25°25' E 119°17'0 0.0
2014-Apr-23 03:27N 25°25' E 119°17'0 0.0
2014-Apr-23 02:33N 25°25' E 119°17'5 4.8
2014-Apr-23 01:33N 25°22' E 119°22'1212.2
2014-Apr-23 00:33N 25°18' E 119°34'5 0.6
2014-Apr-22 16:08N 25°17' E 119°40'140 7.0
2014-Apr-21 20:11N 22°58' E 119°57'813.0
2014-Apr-21 19:34N 22°51' E 120°02'1413.6
2014-Apr-21 18:33N 22°40' E 120°11'9 9.0
2014-Apr-21 17:34N 22°35' E 120°18'0 0.0
2014-Apr-21 16:31N 22°35' E 120°18'0 0.0
2014-Apr-21 15:31N 22°35' E 120°18'0 0.0
2014-Apr-21 14:31N 22°35' E 120°18'0 0.0
2014-Apr-21 13:31N 22°35' E 120°18'0 0.0
2014-Apr-21 12:31N 22°35' E 120°18'0 0.0
2014-Apr-21 11:30N 22°35' E 120°18'0 0.0
2014-Apr-21 10:24N 22°35' E 120°18'0 0.0
2014-Apr-21 09:30N 22°35' E 120°18'0 0.0
2014-Apr-21 08:18N 22°35' E 120°18'3 4.1
2014-Apr-21 07:33N 22°37' E 120°16'4 4.4
2014-Apr-21 06:33N 22°38' E 120°11'2 2.3
2014-Apr-21 05:33N 22°38' E 120°09'4 3.9
2014-Apr-21 04:33N 22°41' E 120°06'1312.9
2014-Apr-21 03:33N 22°48' E 119°55'1312.9
2014-Apr-21 02:33N 22°55' E 119°43'1512.7
2014-Apr-21 01:23N 23°04' E 119°30'11612.7
2014-Apr-20 16:12N 24°30' E 118°04'1 1.4
2014-Apr-20 15:33N 24°30' E 118°05'0 0.0
2014-Apr-20 13:29N 24°30' E 118°05'0 0.0
2014-Apr-20 12:29N 24°30' E 118°05'0 0.0
2014-Apr-20 11:20N 24°30' E 118°05'0 0.0
2014-Apr-20 10:32N 24°30' E 118°05'0 0.0
2014-Apr-20 08:31N 24°30' E 118°05'0 0.0
2014-Apr-20 07:28N 24°30' E 118°05'0 0.0
2014-Apr-20 06:31N 24°30' E 118°05'0 0.0
2014-Apr-20 05:31N 24°30' E 118°05'0 0.1
2014-Apr-20 04:31N 24°30' E 118°05'0 0.0
2014-Apr-20 03:25N 24°30' E 118°05'3 3.9
2014-Apr-20 02:33N 24°27' E 118°03'143 8.9
2014-Apr-19 10:32N 22°48' E 119°55'1313.2
2014-Apr-19 09:33N 22°41' E 120°07'1111.1
2014-Apr-19 08:33N 22°36' E 120°17'1 1.2
2014-Apr-19 07:33N 22°35' E 120°18'0 0.0
2014-Apr-19 06:33N 22°35' E 120°18'0 0.0
2014-Apr-19 05:33N 22°35' E 120°18'0 0.0
2014-Apr-19 04:32N 22°35' E 120°18'0 0.0
2014-Apr-19 03:33N 22°35' E 120°18'0 0.0
2014-Apr-19 02:33N 22°35' E 120°18'0 0.0
2014-Apr-19 01:33N 22°35' E 120°18'0 0.0
2014-Apr-19 00:33N 22°35' E 120°18'0 0.0
2014-Apr-18 23:33N 22°35' E 120°18'7 7.0
2014-Apr-18 22:33N 22°38' E 120°11'4 3.6
2014-Apr-18 21:33N 22°40' E 120°09'1212.3
2014-Apr-18 20:33N 22°51' E 120°02'19511.9
2014-Apr-18 04:09N 26°05' E 119°45'9 9.9
2014-Apr-18 03:15N 26°08' E 119°36'7 9.7
2014-Apr-18 02:32N 26°03' E 119°30'3 2.6
2014-Apr-18 01:22N 26°00' E 119°29'0 0.0
2014-Apr-18 00:28N 26°00' E 119°29'0 0.0
2014-Apr-17 23:28N 26°00' E 119°29'0 0.0
2014-Apr-17 22:28N 26°00' E 119°29'0 0.0
2014-Apr-17 21:28N 26°00' E 119°29'0 0.0
2014-Apr-17 20:28N 26°00' E 119°29'0 0.0
2014-Apr-17 19:28N 26°00' E 119°29'0 0.0
2014-Apr-17 18:28N 26°00' E 119°29'0 0.0
2014-Apr-17 17:22N 26°00' E 119°29'0 0.0
2014-Apr-17 16:10N 26°00' E 119°29'0 0.0
2014-Apr-17 15:28N 26°00' E 119°29'0 0.0
2014-Apr-17 14:28N 26°00' E 119°29'0 0.0
2014-Apr-17 13:28N 26°00' E 119°29'0 0.0
2014-Apr-17 12:28N 26°00' E 119°29'0 0.0
2014-Apr-17 11:28N 26°00' E 119°29'0 0.0
2014-Apr-17 10:22N 26°00' E 119°29'0 0.0
2014-Apr-17 09:28N 26°00' E 119°29'0 0.0
2014-Apr-17 08:22N 26°00' E 119°29'0 0.0
2014-Apr-17 07:28N 26°00' E 119°29'0 0.0
2014-Apr-17 06:28N 26°00' E 119°29'1 0.5
2014-Apr-17 04:13N 26°01' E 119°29'811.9
2014-Apr-17 03:33N 26°08' E 119°34'10 9.4
2014-Apr-17 02:29N 26°05' E 119°45'6 1.4
2014-Apr-16 22:15N 26°02' E 119°51'0 0.0
2014-Apr-16 17:33N 26°02' E 119°51'4911.0
2014-Apr-16 13:08N 25°14' E 119°46'712.3
2014-Apr-16 12:33N 25°17' E 119°39'1111.1
2014-Apr-16 11:33N 25°19' E 119°27'1110.9
2014-Apr-16 10:33N 25°25' E 119°17'0 0.0
2014-Apr-16 09:34N 25°25' E 119°17'0 0.0
2014-Apr-16 08:25N 25°25' E 119°17'0 0.1
2014-Apr-16 07:28N 25°25' E 119°17'0 0.1
2014-Apr-16 06:28N 25°25' E 119°17'0 0.1
2014-Apr-16 05:33N 25°25' E 119°17'9 9.5
2014-Apr-16 04:33N 25°20' E 119°26'1311.5
2014-Apr-16 03:28N 25°17' E 119°39'147 6.7
2014-Apr-15 05:34N 22°51' E 119°60'2512.4
2014-Apr-15 03:34N 22°34' E 120°19'1 1.2
2014-Apr-15 02:29N 22°35' E 120°18'0 0.0
2014-Apr-15 01:29N 22°35' E 120°18'0 0.0
2014-Apr-14 18:32N 22°35' E 120°18'6 5.7
2014-Apr-14 17:34N 22°37' E 120°13'0 0.1
2014-Apr-14 16:32N 22°37' E 120°13'0 0.1
2014-Apr-14 15:32N 22°37' E 120°13'0 0.0
2014-Apr-14 14:32N 22°37' E 120°13'0 0.0
2014-Apr-14 13:32N 22°37' E 120°13'0 0.0
2014-Apr-14 11:31N 22°37' E 120°13'0 0.0
2014-Apr-14 09:31N 22°37' E 120°13'0 0.0
2014-Apr-14 08:31N 22°37' E 120°13'0 0.0
2014-Apr-14 07:31N 22°37' E 120°13'0 0.0
2014-Apr-14 05:31N 22°37' E 120°13'0 0.0
2014-Apr-13 22:31N 22°37' E 120°13'0 0.0
2014-Apr-13 21:31N 22°37' E 120°13'0 0.0
2014-Apr-13 20:31N 22°37' E 120°13'4 4.3
2014-Apr-13 19:33N 22°39' E 120°09'1413.8
2014-Apr-13 18:33N 22°47' E 119°57'1414.2
2014-Apr-13 17:33N 22°55' E 119°44'6013.5
2014-Apr-13 13:06N 23°37' E 118°57'2012.7
2014-Apr-13 11:31N 23°51' E 118°42'1812.9
2014-Apr-13 10:08N 24°03' E 118°28'713.0
2014-Apr-13 09:34N 24°09' E 118°22'1313.4
2014-Apr-13 08:33N 24°19' E 118°12'1212.3
2014-Apr-13 07:33N 24°28' E 118°03'3 2.9
2014-Apr-13 06:33N 24°30' E 118°05'  

Dump ship's entire track history

sailing weather and tide predictions

Shin Chun — VRFD2 — position and weather